Canyon Creek, MT (59633)

4:26 PM MDT on August 29, 2014 (GMT -0600)
Flesher Pass | Change Station
CLOSE
Current Station
Personal Weather Station
Location: Montana, MT
Elevation: 5364 ft
Nearby Weather Stations

Elev 5364 ft 46.96 °N, 112.35 °W | Updated 5 minutes ago

Clear
Clear
75.9 °F
Feels Like 77 °F
N
1.1
Wind Variable Wind from NE

Today
High -- | Low -- °F
--% Chance of Precip.
Yesterday
High -- | Low -- °F
Precip. -- in
6:45 AM 8:14 PM
Waxing Crescent, 17% visible
Pressure 29.86 in
Visibility 10.0 miles
Clouds Clear
Heat Index 77 °F
Dew Point 40 °F
Humidity 28%
Rainfall 0.00 in
Snow Depth Not available.
UV 6 out of 12
Pollen 7.30 out of 12
Air Quality Not available.
Flu Activity Not available.
METAR KHLN 292153Z 12007KT 10SM CLR 27/07 A2990 RMK AO2 SLP109 T02720067

More Conditions Fewer Conditions

Pressure 29.86 in
Visibility 10.0 miles
Clouds Clear
Heat Index 77 °F
Dew Point 40 °F
Humidity 28%
Rainfall 0.00 in
Snow Depth Not available.
UV 6 out of 12
Pollen 7.30 out of 12
Air Quality Not available.
Flu Activity Not available.
METAR KHLN 292153Z 12007KT 10SM CLR 27/07 A2990 RMK AO2 SLP109 T02720067

More Conditions Fewer Conditions

10-Day Weather Forecast

Almanac

Astronomy

Aug. 29, 2014 Rise Set
Actual Time 6:45 AM MDT 8:14 PM MDT
Civil Twilight 6:13 AM MDT 8:45 PM MDT
Nautical Twilight 5:34 AM MDT 9:24 PM MDT
Astronomical Twilight 4:53 AM MDT 10:05 PM MDT
Moon 10:55 AM MDT 9:55 PM MDT
Length of Visible Light 14h 32m
Length of Day
13h 29m
Tomorrow will be 3m 11s shorter.
Waxing Crescent, 17% of the Moon is Illuminated
Today
Waxing Crescent
Sep 2
First Quarter
Sep 8
Full
Sep 15
Last Quarter
Sep 24
New

Today's Extremes

State Highs State Lows

Community

WunderPhotos

Upload Photos

1,748,360 photos uploaded!

Nearby

Snow Depth

Station Depth Elevation
Wood Creek 0 in 5960 ft
Black Pine 0 in 7210 ft
Brackett Creek 0 in 7320 ft
Waldron 0 in 5600 ft
Kraft Creek 0 in 4750 ft

Earthquake Activity

City Distance Mag. Time & Date
No recent earthquake activity has been reported nearby.
Minimum magnitude displayed is 2.5.

Coastal Water Temperatures

Place Temperature
No Stations Reporting

Nearby Weather Stations